Ruso, North Dakota
Current Conditions -  °F | °C
As of 7:54 AM on Saturday 22 Nov 2014 (Local Time) from KMOT Reporting Station
Clear Clear  
Wind Chill: -8°   Ceiling: Unl
Heat Index: -4°   Visibility: 10mi
Dew Point: -6°   Wind: 6mph
Humidity: 88%   Direction: 120°ESE
Pressure: 29.47"   Gusts: NA
Location:  47.84°N, 100.93°W
Report Text: KMOT 221354Z 12005KT 10SM CLR M04/M06 A2947 RMK AO2 SLP999 I1000 T10391056
Loading
Personal Weather Stations






























Interactive Weather Map New forecast layout! Learn more

10-Day Weather Forecast

Advertisements
Track Severe Weather on mobile